sensor_id;sensor_type;location;lat;lon;timestamp;P1;durP1;ratioP1;P2;durP2;ratioP2
13291;SDS011;6714;53.056;8.690;2023-12-20T00:02:22;5.50;;;1.87;;
13291;SDS011;6714;53.056;8.690;2023-12-20T00:05:05;3.17;;;1.73;;
13291;SDS011;6714;53.056;8.690;2023-12-20T00:07:49;6.30;;;1.83;;
13291;SDS011;6714;53.056;8.690;2023-12-20T00:10:32;7.70;;;2.00;;
13291;SDS011;6714;53.056;8.690;2023-12-20T00:13:15;6.33;;;1.93;;
13291;SDS011;6714;53.056;8.690;2023-12-20T00:15:57;4.17;;;1.93;;
13291;SDS011;6714;53.056;8.690;2023-12-20T00:18:40;6.73;;;1.70;;
13291;SDS011;6714;53.056;8.690;2023-12-20T00:21:23;5.23;;;1.50;;
13291;SDS011;6714;53.056;8.690;2023-12-20T00:24:07;4.97;;;1.90;;
13291;SDS011;6714;53.056;8.690;2023-12-20T00:26:49;6.87;;;1.83;;
13291;SDS011;6714;53.056;8.690;2023-12-20T00:29:32;8.60;;;1.87;;
13291;SDS011;6714;53.056;8.690;2023-12-20T00:32:15;6.13;;;1.80;;
13291;SDS011;6714;53.056;8.690;2023-12-20T00:34:58;7.53;;;1.83;;
13291;SDS011;6714;53.056;8.690;2023-12-20T00:37:41;5.10;;;1.30;;
13291;SDS011;6714;53.056;8.690;2023-12-20T00:40:25;4.77;;;1.70;;
13291;SDS011;6714;53.056;8.690;2023-12-20T00:43:08;6.17;;;1.70;;
13291;SDS011;6714;53.056;8.690;2023-12-20T00:45:51;6.10;;;1.80;;
13291;SDS011;6714;53.056;8.690;2023-12-20T00:48:34;4.87;;;1.33;;
13291;SDS011;6714;53.056;8.690;2023-12-20T00:51:16;6.73;;;1.73;;
13291;SDS011;6714;53.056;8.690;2023-12-20T00:53:59;4.70;;;1.87;;
13291;SDS011;6714;53.056;8.690;2023-12-20T00:56:44;8.20;;;2.00;;
13291;SDS011;6714;53.056;8.690;2023-12-20T00:59:26;7.17;;;1.90;;
13291;SDS011;6714;53.056;8.690;2023-12-20T01:02:09;5.73;;;1.80;;
13291;SDS011;6714;53.056;8.690;2023-12-20T01:04:52;5.07;;;1.97;;
13291;SDS011;6714;53.056;8.690;2023-12-20T01:07:35;3.73;;;1.53;;
13291;SDS011;6714;53.056;8.690;2023-12-20T01:10:18;4.90;;;1.57;;
13291;SDS011;6714;53.056;8.690;2023-12-20T01:13:03;6.70;;;1.73;;
13291;SDS011;6714;53.056;8.690;2023-12-20T01:15:46;7.63;;;2.00;;
13291;SDS011;6714;53.056;8.690;2023-12-20T01:18:29;8.37;;;1.67;;
13291;SDS011;6714;53.056;8.690;2023-12-20T01:21:11;4.07;;;1.60;;
13291;SDS011;6714;53.056;8.690;2023-12-20T01:23:54;7.43;;;1.83;;
13291;SDS011;6714;53.056;8.690;2023-12-20T01:26:37;3.57;;;1.47;;
13291;SDS011;6714;53.056;8.690;2023-12-20T01:29:21;5.93;;;1.30;;
13291;SDS011;6714;53.056;8.690;2023-12-20T01:32:04;7.03;;;1.67;;
13291;SDS011;6714;53.056;8.690;2023-12-20T01:34:47;6.67;;;1.83;;
13291;SDS011;6714;53.056;8.690;2023-12-20T01:37:30;5.00;;;1.77;;
13291;SDS011;6714;53.056;8.690;2023-12-20T01:40:13;3.57;;;1.57;;
13291;SDS011;6714;53.056;8.690;2023-12-20T01:42:59;10.03;;;2.30;;
13291;SDS011;6714;53.056;8.690;2023-12-20T01:45:43;7.60;;;1.77;;
13291;SDS011;6714;53.056;8.690;2023-12-20T01:48:26;7.03;;;1.33;;
13291;SDS011;6714;53.056;8.690;2023-12-20T01:51:12;5.80;;;1.60;;
13291;SDS011;6714;53.056;8.690;2023-12-20T01:53:55;4.47;;;1.73;;
13291;SDS011;6714;53.056;8.690;2023-12-20T01:56:40;5.03;;;1.67;;
13291;SDS011;6714;53.056;8.690;2023-12-20T01:59:23;5.93;;;1.73;;
13291;SDS011;6714;53.056;8.690;2023-12-20T02:02:08;6.17;;;1.53;;
13291;SDS011;6714;53.056;8.690;2023-12-20T02:04:52;3.77;;;1.63;;
13291;SDS011;6714;53.056;8.690;2023-12-20T02:07:35;7.07;;;1.83;;
13291;SDS011;6714;53.056;8.690;2023-12-20T02:10:18;3.07;;;1.37;;
13291;SDS011;6714;53.056;8.690;2023-12-20T02:13:01;7.50;;;1.80;;
13291;SDS011;6714;53.056;8.690;2023-12-20T02:15:44;4.57;;;1.53;;
13291;SDS011;6714;53.056;8.690;2023-12-20T02:18:29;4.70;;;1.60;;
13291;SDS011;6714;53.056;8.690;2023-12-20T02:21:11;3.67;;;1.40;;
13291;SDS011;6714;53.056;8.690;2023-12-20T02:23:55;7.33;;;1.80;;
13291;SDS011;6714;53.056;8.690;2023-12-20T02:26:37;6.87;;;1.90;;
13291;SDS011;6714;53.056;8.690;2023-12-20T02:29:20;4.63;;;1.70;;
13291;SDS011;6714;53.056;8.690;2023-12-20T02:32:02;6.80;;;1.97;;
13291;SDS011;6714;53.056;8.690;2023-12-20T02:34:46;3.87;;;1.53;;
13291;SDS011;6714;53.056;8.690;2023-12-20T02:37:29;3.73;;;1.70;;
13291;SDS011;6714;53.056;8.690;2023-12-20T02:40:12;3.53;;;1.37;;
13291;SDS011;6714;53.056;8.690;2023-12-20T02:42:54;7.63;;;1.93;;
13291;SDS011;6714;53.056;8.690;2023-12-20T02:45:37;4.67;;;1.77;;
13291;SDS011;6714;53.056;8.690;2023-12-20T02:48:19;9.20;;;2.20;;
13291;SDS011;6714;53.056;8.690;2023-12-20T02:51:01;4.10;;;1.67;;
13291;SDS011;6714;53.056;8.690;2023-12-20T02:53:43;6.97;;;2.23;;
13291;SDS011;6714;53.056;8.690;2023-12-20T02:56:27;4.03;;;1.70;;
13291;SDS011;6714;53.056;8.690;2023-12-20T02:59:09;4.97;;;2.00;;
13291;SDS011;6714;53.056;8.690;2023-12-20T03:01:51;5.23;;;1.87;;
13291;SDS011;6714;53.056;8.690;2023-12-20T03:04:34;6.80;;;1.97;;
13291;SDS011;6714;53.056;8.690;2023-12-20T03:07:16;5.57;;;1.93;;
13291;SDS011;6714;53.056;8.690;2023-12-20T03:09:58;8.10;;;2.07;;
13291;SDS011;6714;53.056;8.690;2023-12-20T03:12:42;6.73;;;1.90;;
13291;SDS011;6714;53.056;8.690;2023-12-20T03:15:24;11.93;;;2.60;;
13291;SDS011;6714;53.056;8.690;2023-12-20T03:18:06;7.47;;;2.03;;
13291;SDS011;6714;53.056;8.690;2023-12-20T03:20:48;3.93;;;1.63;;
13291;SDS011;6714;53.056;8.690;2023-12-20T03:23:31;3.27;;;1.50;;
13291;SDS011;6714;53.056;8.690;2023-12-20T03:26:13;4.50;;;1.70;;
13291;SDS011;6714;53.056;8.690;2023-12-20T03:28:57;3.97;;;1.77;;
13291;SDS011;6714;53.056;8.690;2023-12-20T03:31:39;3.90;;;1.50;;
13291;SDS011;6714;53.056;8.690;2023-12-20T03:34:21;4.37;;;1.90;;
13291;SDS011;6714;53.056;8.690;2023-12-20T03:37:04;8.17;;;2.60;;
13291;SDS011;6714;53.056;8.690;2023-12-20T03:39:46;6.03;;;2.20;;
13291;SDS011;6714;53.056;8.690;2023-12-20T03:42:28;4.90;;;1.97;;
13291;SDS011;6714;53.056;8.690;2023-12-20T03:45:12;5.83;;;1.87;;
13291;SDS011;6714;53.056;8.690;2023-12-20T03:47:54;3.10;;;1.70;;
13291;SDS011;6714;53.056;8.690;2023-12-20T03:50:36;7.27;;;2.60;;
13291;SDS011;6714;53.056;8.690;2023-12-20T03:53:19;9.30;;;2.33;;
13291;SDS011;6714;53.056;8.690;2023-12-20T03:56:01;8.03;;;2.57;;
13291;SDS011;6714;53.056;8.690;2023-12-20T03:58:43;8.20;;;2.83;;
13291;SDS011;6714;53.056;8.690;2023-12-20T04:01:27;7.50;;;2.87;;
13291;SDS011;6714;53.056;8.690;2023-12-20T04:04:09;7.83;;;2.00;;
13291;SDS011;6714;53.056;8.690;2023-12-20T04:06:51;9.00;;;2.80;;
13291;SDS011;6714;53.056;8.690;2023-12-20T04:09:34;3.50;;;1.50;;
13291;SDS011;6714;53.056;8.690;2023-12-20T04:12:16;6.80;;;2.77;;
13291;SDS011;6714;53.056;8.690;2023-12-20T04:14:58;3.63;;;1.77;;
13291;SDS011;6714;53.056;8.690;2023-12-20T04:17:42;4.07;;;1.80;;
13291;SDS011;6714;53.056;8.690;2023-12-20T04:20:24;11.70;;;2.97;;
13291;SDS011;6714;53.056;8.690;2023-12-20T04:23:06;6.87;;;2.17;;
13291;SDS011;6714;53.056;8.690;2023-12-20T04:25:49;5.20;;;1.90;;
13291;SDS011;6714;53.056;8.690;2023-12-20T04:28:31;8.53;;;2.77;;
13291;SDS011;6714;53.056;8.690;2023-12-20T04:31:13;12.80;;;3.40;;
13291;SDS011;6714;53.056;8.690;2023-12-20T04:33:57;9.37;;;2.80;;
13291;SDS011;6714;53.056;8.690;2023-12-20T04:36:39;7.03;;;2.83;;
13291;SDS011;6714;53.056;8.690;2023-12-20T04:39:21;6.83;;;2.80;;
13291;SDS011;6714;53.056;8.690;2023-12-20T04:42:04;10.00;;;3.17;;
13291;SDS011;6714;53.056;8.690;2023-12-20T04:44:46;6.87;;;2.90;;
13291;SDS011;6714;53.056;8.690;2023-12-20T04:47:28;6.93;;;2.70;;
13291;SDS011;6714;53.056;8.690;2023-12-20T04:50:12;5.00;;;2.63;;
13291;SDS011;6714;53.056;8.690;2023-12-20T04:52:54;11.93;;;3.47;;
13291;SDS011;6714;53.056;8.690;2023-12-20T04:55:37;8.67;;;2.83;;
13291;SDS011;6714;53.056;8.690;2023-12-20T04:58:19;7.50;;;2.70;;
13291;SDS011;6714;53.056;8.690;2023-12-20T05:01:01;6.17;;;3.10;;
13291;SDS011;6714;53.056;8.690;2023-12-20T05:03:43;8.53;;;3.53;;
13291;SDS011;6714;53.056;8.690;2023-12-20T05:06:27;5.97;;;2.97;;
13291;SDS011;6714;53.056;8.690;2023-12-20T05:09:09;8.20;;;2.77;;
13291;SDS011;6714;53.056;8.690;2023-12-20T05:11:52;10.37;;;2.80;;
13291;SDS011;6714;53.056;8.690;2023-12-20T05:14:34;7.93;;;2.83;;
13291;SDS011;6714;53.056;8.690;2023-12-20T05:17:16;10.83;;;3.30;;
13291;SDS011;6714;53.056;8.690;2023-12-20T05:20:00;6.53;;;3.10;;
13291;SDS011;6714;53.056;8.690;2023-12-20T05:22:44;7.03;;;3.00;;
13291;SDS011;6714;53.056;8.690;2023-12-20T05:25:27;10.10;;;3.07;;
13291;SDS011;6714;53.056;8.690;2023-12-20T05:28:09;10.57;;;3.00;;
13291;SDS011;6714;53.056;8.690;2023-12-20T05:30:52;5.47;;;2.20;;
13291;SDS011;6714;53.056;8.690;2023-12-20T05:33:34;8.63;;;3.23;;
13291;SDS011;6714;53.056;8.690;2023-12-20T05:36:16;8.23;;;2.80;;
13291;SDS011;6714;53.056;8.690;2023-12-20T05:39:00;4.00;;;2.17;;
13291;SDS011;6714;53.056;8.690;2023-12-20T05:41:43;8.57;;;2.83;;
13291;SDS011;6714;53.056;8.690;2023-12-20T05:44:25;7.60;;;2.50;;
13291;SDS011;6714;53.056;8.690;2023-12-20T05:47:08;8.37;;;2.50;;
13291;SDS011;6714;53.056;8.690;2023-12-20T05:49:50;6.70;;;2.60;;
13291;SDS011;6714;53.056;8.690;2023-12-20T05:52:32;6.60;;;2.57;;
13291;SDS011;6714;53.056;8.690;2023-12-20T05:55:16;12.03;;;3.20;;
13291;SDS011;6714;53.056;8.690;2023-12-20T05:57:58;5.10;;;2.43;;
13291;SDS011;6714;53.056;8.690;2023-12-20T06:00:40;12.17;;;2.93;;
13291;SDS011;6714;53.056;8.690;2023-12-20T06:03:22;10.00;;;3.27;;
13291;SDS011;6714;53.056;8.690;2023-12-20T06:06:05;9.50;;;3.53;;
13291;SDS011;6714;53.056;8.690;2023-12-20T06:08:48;9.50;;;3.27;;
13291;SDS011;6714;53.056;8.690;2023-12-20T06:11:31;9.27;;;2.97;;
13291;SDS011;6714;53.056;8.690;2023-12-20T06:14:14;8.37;;;3.00;;
13291;SDS011;6714;53.056;8.690;2023-12-20T06:16:56;10.50;;;3.23;;
13291;SDS011;6714;53.056;8.690;2023-12-20T06:19:38;7.00;;;2.80;;
13291;SDS011;6714;53.056;8.690;2023-12-20T06:22:22;12.40;;;3.20;;
13291;SDS011;6714;53.056;8.690;2023-12-20T06:25:05;14.87;;;3.90;;
13291;SDS011;6714;53.056;8.690;2023-12-20T06:27:48;12.27;;;3.80;;
13291;SDS011;6714;53.056;8.690;2023-12-20T06:30:31;11.70;;;2.90;;
13291;SDS011;6714;53.056;8.690;2023-12-20T06:33:14;12.77;;;3.43;;
13291;SDS011;6714;53.056;8.690;2023-12-20T06:35:56;10.87;;;3.00;;
13291;SDS011;6714;53.056;8.690;2023-12-20T06:38:39;12.83;;;3.43;;
13291;SDS011;6714;53.056;8.690;2023-12-20T06:41:22;12.13;;;3.33;;
13291;SDS011;6714;53.056;8.690;2023-12-20T06:44:06;12.73;;;3.40;;
13291;SDS011;6714;53.056;8.690;2023-12-20T06:46:49;9.13;;;2.80;;
13291;SDS011;6714;53.056;8.690;2023-12-20T06:49:31;7.23;;;2.60;;
13291;SDS011;6714;53.056;8.690;2023-12-20T06:52:13;13.47;;;3.13;;
13291;SDS011;6714;53.056;8.690;2023-12-20T06:54:56;11.73;;;3.70;;
13291;SDS011;6714;53.056;8.690;2023-12-20T06:57:38;7.57;;;3.10;;
13291;SDS011;6714;53.056;8.690;2023-12-20T07:00:22;11.70;;;3.07;;
13291;SDS011;6714;53.056;8.690;2023-12-20T07:03:04;11.53;;;3.20;;
13291;SDS011;6714;53.056;8.690;2023-12-20T07:05:46;11.10;;;3.53;;
13291;SDS011;6714;53.056;8.690;2023-12-20T07:08:29;10.23;;;3.00;;
13291;SDS011;6714;53.056;8.690;2023-12-20T07:11:11;13.27;;;4.10;;
13291;SDS011;6714;53.056;8.690;2023-12-20T07:13:53;9.40;;;3.13;;
13291;SDS011;6714;53.056;8.690;2023-12-20T07:16:37;8.83;;;3.33;;
13291;SDS011;6714;53.056;8.690;2023-12-20T07:19:20;11.90;;;3.57;;
13291;SDS011;6714;53.056;8.690;2023-12-20T07:22:02;14.40;;;3.60;;
13291;SDS011;6714;53.056;8.690;2023-12-20T07:24:45;13.07;;;2.97;;
13291;SDS011;6714;53.056;8.690;2023-12-20T07:27:28;12.37;;;3.23;;
13291;SDS011;6714;53.056;8.690;2023-12-20T07:30:11;7.57;;;2.50;;
13291;SDS011;6714;53.056;8.690;2023-12-20T07:32:57;11.70;;;3.77;;
13291;SDS011;6714;53.056;8.690;2023-12-20T07:35:41;15.03;;;3.87;;
13291;SDS011;6714;53.056;8.690;2023-12-20T07:38:25;9.50;;;3.03;;
13291;SDS011;6714;53.056;8.690;2023-12-20T07:41:09;14.50;;;3.63;;
13291;SDS011;6714;53.056;8.690;2023-12-20T07:43:51;10.87;;;3.27;;
13291;SDS011;6714;53.056;8.690;2023-12-20T07:46:34;11.07;;;3.43;;
13291;SDS011;6714;53.056;8.690;2023-12-20T07:49:18;10.97;;;3.57;;
13291;SDS011;6714;53.056;8.690;2023-12-20T07:52:01;12.93;;;3.83;;
13291;SDS011;6714;53.056;8.690;2023-12-20T07:54:43;11.10;;;3.60;;
13291;SDS011;6714;53.056;8.690;2023-12-20T07:57:28;18.10;;;4.53;;
13291;SDS011;6714;53.056;8.690;2023-12-20T08:00:11;10.17;;;3.13;;
13291;SDS011;6714;53.056;8.690;2023-12-20T08:02:54;12.63;;;3.23;;
13291;SDS011;6714;53.056;8.690;2023-12-20T08:05:39;13.03;;;3.50;;
13291;SDS011;6714;53.056;8.690;2023-12-20T08:08:21;11.37;;;3.80;;
13291;SDS011;6714;53.056;8.690;2023-12-20T08:11:04;13.10;;;3.47;;
13291;SDS011;6714;53.056;8.690;2023-12-20T08:13:47;9.53;;;3.07;;
13291;SDS011;6714;53.056;8.690;2023-12-20T08:16:32;14.53;;;3.43;;
13291;SDS011;6714;53.056;8.690;2023-12-20T08:19:15;15.73;;;4.13;;
13291;SDS011;6714;53.056;8.690;2023-12-20T08:22:03;9.23;;;3.07;;
13291;SDS011;6714;53.056;8.690;2023-12-20T08:24:45;9.40;;;3.20;;
13291;SDS011;6714;53.056;8.690;2023-12-20T08:27:28;11.83;;;3.27;;
13291;SDS011;6714;53.056;8.690;2023-12-20T08:30:12;12.83;;;3.83;;
13291;SDS011;6714;53.056;8.690;2023-12-20T08:32:54;11.03;;;3.50;;
13291;SDS011;6714;53.056;8.690;2023-12-20T08:35:37;13.50;;;3.27;;
13291;SDS011;6714;53.056;8.690;2023-12-20T08:38:21;11.40;;;3.50;;
13291;SDS011;6714;53.056;8.690;2023-12-20T08:41:04;9.83;;;3.17;;
13291;SDS011;6714;53.056;8.690;2023-12-20T08:43:47;13.80;;;4.10;;
13291;SDS011;6714;53.056;8.690;2023-12-20T08:46:31;8.70;;;3.17;;
13291;SDS011;6714;53.056;8.690;2023-12-20T08:49:14;13.20;;;3.73;;
13291;SDS011;6714;53.056;8.690;2023-12-20T08:51:57;13.37;;;3.37;;
13291;SDS011;6714;53.056;8.690;2023-12-20T08:54:42;12.77;;;4.03;;
13291;SDS011;6714;53.056;8.690;2023-12-20T08:57:24;8.37;;;3.20;;
13291;SDS011;6714;53.056;8.690;2023-12-20T09:00:08;9.60;;;3.50;;
13291;SDS011;6714;53.056;8.690;2023-12-20T09:02:58;14.33;;;3.70;;
13291;SDS011;6714;53.056;8.690;2023-12-20T09:05:41;9.10;;;3.80;;
13291;SDS011;6714;53.056;8.690;2023-12-20T09:08:24;11.33;;;3.57;;
13291;SDS011;6714;53.056;8.690;2023-12-20T09:11:08;13.37;;;3.50;;
13291;SDS011;6714;53.056;8.690;2023-12-20T09:13:50;8.50;;;3.10;;
13291;SDS011;6714;53.056;8.690;2023-12-20T09:16:35;18.13;;;4.47;;
13291;SDS011;6714;53.056;8.690;2023-12-20T09:19:17;9.00;;;3.43;;
13291;SDS011;6714;53.056;8.690;2023-12-20T09:22:00;16.27;;;3.90;;
13291;SDS011;6714;53.056;8.690;2023-12-20T09:24:43;11.00;;;3.30;;
13291;SDS011;6714;53.056;8.690;2023-12-20T09:27:28;9.37;;;3.40;;
13291;SDS011;6714;53.056;8.690;2023-12-20T09:30:10;13.30;;;3.97;;
13291;SDS011;6714;53.056;8.690;2023-12-20T09:32:53;12.50;;;3.77;;
13291;SDS011;6714;53.056;8.690;2023-12-20T09:35:36;9.10;;;3.20;;
13291;SDS011;6714;53.056;8.690;2023-12-20T09:38:18;7.63;;;2.90;;
13291;SDS011;6714;53.056;8.690;2023-12-20T09:41:01;8.70;;;3.20;;
13291;SDS011;6714;53.056;8.690;2023-12-20T09:43:46;7.97;;;3.33;;
13291;SDS011;6714;53.056;8.690;2023-12-20T09:46:30;11.93;;;3.30;;
13291;SDS011;6714;53.056;8.690;2023-12-20T09:49:18;8.47;;;2.60;;
13291;SDS011;6714;53.056;8.690;2023-12-20T09:52:02;9.17;;;2.40;;
13291;SDS011;6714;53.056;8.690;2023-12-20T09:54:47;8.10;;;2.60;;
13291;SDS011;6714;53.056;8.690;2023-12-20T09:57:31;6.10;;;2.40;;
13291;SDS011;6714;53.056;8.690;2023-12-20T10:00:16;5.57;;;1.87;;
13291;SDS011;6714;53.056;8.690;2023-12-20T10:02:59;5.23;;;2.17;;
13291;SDS011;6714;53.056;8.690;2023-12-20T10:05:42;7.17;;;1.90;;
13291;SDS011;6714;53.056;8.690;2023-12-20T10:08:25;4.93;;;1.53;;
13291;SDS011;6714;53.056;8.690;2023-12-20T10:11:10;4.97;;;1.47;;
13291;SDS011;6714;53.056;8.690;2023-12-20T10:13:52;4.20;;;1.30;;
13291;SDS011;6714;53.056;8.690;2023-12-20T10:16:43;4.60;;;1.50;;
13291;SDS011;6714;53.056;8.690;2023-12-20T10:19:25;2.53;;;1.33;;
13291;SDS011;6714;53.056;8.690;2023-12-20T10:22:09;3.27;;;1.20;;
13291;SDS011;6714;53.056;8.690;2023-12-20T10:24:53;3.77;;;1.47;;
13291;SDS011;6714;53.056;8.690;2023-12-20T10:27:38;3.23;;;1.30;;
13291;SDS011;6714;53.056;8.690;2023-12-20T10:30:20;4.47;;;1.40;;
13291;SDS011;6714;53.056;8.690;2023-12-20T10:33:06;2.50;;;0.97;;
13291;SDS011;6714;53.056;8.690;2023-12-20T10:35:49;4.50;;;1.30;;
13291;SDS011;6714;53.056;8.690;2023-12-20T10:38:32;2.57;;;1.13;;
13291;SDS011;6714;53.056;8.690;2023-12-20T10:41:15;5.23;;;1.17;;
13291;SDS011;6714;53.056;8.690;2023-12-20T10:44:02;2.23;;;1.27;;
13291;SDS011;6714;53.056;8.690;2023-12-20T10:46:45;2.20;;;1.20;;
13291;SDS011;6714;53.056;8.690;2023-12-20T10:49:32;2.27;;;1.20;;
13291;SDS011;6714;53.056;8.690;2023-12-20T10:52:18;1.47;;;1.10;;
13291;SDS011;6714;53.056;8.690;2023-12-20T10:55:02;1.97;;;1.17;;
13291;SDS011;6714;53.056;8.690;2023-12-20T10:57:44;3.50;;;1.23;;
13291;SDS011;6714;53.056;8.690;2023-12-20T11:00:31;2.43;;;1.00;;
13291;SDS011;6714;53.056;8.690;2023-12-20T11:03:14;2.67;;;1.30;;
13291;SDS011;6714;53.056;8.690;2023-12-20T11:06:01;2.20;;;1.20;;
13291;SDS011;6714;53.056;8.690;2023-12-20T11:08:46;4.40;;;1.47;;
13291;SDS011;6714;53.056;8.690;2023-12-20T11:11:29;3.53;;;1.10;;
13291;SDS011;6714;53.056;8.690;2023-12-20T11:14:14;3.07;;;1.33;;
13291;SDS011;6714;53.056;8.690;2023-12-20T11:17:07;2.77;;;1.10;;
13291;SDS011;6714;53.056;8.690;2023-12-20T11:20:07;3.57;;;1.50;;
13291;SDS011;6714;53.056;8.690;2023-12-20T11:22:53;2.57;;;1.13;;
13291;SDS011;6714;53.056;8.690;2023-12-20T11:25:46;3.90;;;1.00;;
13291;SDS011;6714;53.056;8.690;2023-12-20T11:28:29;6.63;;;1.77;;
13291;SDS011;6714;53.056;8.690;2023-12-20T11:31:13;5.77;;;1.20;;
13291;SDS011;6714;53.056;8.690;2023-12-20T11:34:00;4.43;;;1.30;;
13291;SDS011;6714;53.056;8.690;2023-12-20T11:36:58;4.33;;;1.40;;
13291;SDS011;6714;53.056;8.690;2023-12-20T11:39:43;2.63;;;1.27;;
13291;SDS011;6714;53.056;8.690;2023-12-20T11:42:30;4.53;;;1.20;;
13291;SDS011;6714;53.056;8.690;2023-12-20T11:45:15;4.07;;;1.30;;
13291;SDS011;6714;53.056;8.690;2023-12-20T11:48:00;2.37;;;1.37;;
13291;SDS011;6714;53.056;8.690;2023-12-20T11:50:44;5.43;;;1.17;;
13291;SDS011;6714;53.056;8.690;2023-12-20T11:53:27;3.47;;;1.63;;
13291;SDS011;6714;53.056;8.690;2023-12-20T11:56:12;5.33;;;1.67;;
13291;SDS011;6714;53.056;8.690;2023-12-20T11:58:55;5.33;;;1.50;;
13291;SDS011;6714;53.056;8.690;2023-12-20T12:01:38;5.03;;;1.50;;
13291;SDS011;6714;53.056;8.690;2023-12-20T12:04:21;7.13;;;2.07;;
13291;SDS011;6714;53.056;8.690;2023-12-20T12:07:04;7.20;;;1.80;;
13291;SDS011;6714;53.056;8.690;2023-12-20T12:09:46;4.60;;;1.13;;
13291;SDS011;6714;53.056;8.690;2023-12-20T12:12:32;4.60;;;1.43;;
13291;SDS011;6714;53.056;8.690;2023-12-20T12:15:15;4.80;;;1.50;;
13291;SDS011;6714;53.056;8.690;2023-12-20T12:17:58;6.63;;;1.50;;
13291;SDS011;6714;53.056;8.690;2023-12-20T12:20:41;6.70;;;1.73;;
13291;SDS011;6714;53.056;8.690;2023-12-20T12:23:23;7.73;;;1.80;;
13291;SDS011;6714;53.056;8.690;2023-12-20T12:26:06;7.00;;;1.93;;
13291;SDS011;6714;53.056;8.690;2023-12-20T12:28:50;6.17;;;1.83;;
13291;SDS011;6714;53.056;8.690;2023-12-20T12:31:33;7.37;;;1.70;;
13291;SDS011;6714;53.056;8.690;2023-12-20T12:34:16;9.37;;;1.73;;
13291;SDS011;6714;53.056;8.690;2023-12-20T12:36:59;6.07;;;1.80;;
13291;SDS011;6714;53.056;8.690;2023-12-20T12:39:42;7.00;;;1.83;;
13291;SDS011;6714;53.056;8.690;2023-12-20T12:42:27;5.47;;;2.20;;
13291;SDS011;6714;53.056;8.690;2023-12-20T12:45:11;5.73;;;1.93;;
13291;SDS011;6714;53.056;8.690;2023-12-20T12:47:53;6.33;;;1.57;;
13291;SDS011;6714;53.056;8.690;2023-12-20T12:50:36;9.77;;;2.10;;
13291;SDS011;6714;53.056;8.690;2023-12-20T12:53:18;7.73;;;1.83;;
13291;SDS011;6714;53.056;8.690;2023-12-20T12:56:01;7.47;;;1.77;;
13291;SDS011;6714;53.056;8.690;2023-12-20T12:58:43;8.47;;;2.10;;
13291;SDS011;6714;53.056;8.690;2023-12-20T13:01:28;4.83;;;1.60;;
13291;SDS011;6714;53.056;8.690;2023-12-20T13:04:10;11.30;;;2.50;;
13291;SDS011;6714;53.056;8.690;2023-12-20T13:06:53;4.87;;;1.70;;
13291;SDS011;6714;53.056;8.690;2023-12-20T13:09:35;5.70;;;1.83;;
13291;SDS011;6714;53.056;8.690;2023-12-20T13:12:18;5.73;;;1.83;;
13291;SDS011;6714;53.056;8.690;2023-12-20T13:15:01;9.20;;;2.50;;
13291;SDS011;6714;53.056;8.690;2023-12-20T13:17:46;5.73;;;1.90;;
13291;SDS011;6714;53.056;8.690;2023-12-20T13:20:28;5.90;;;1.93;;
13291;SDS011;6714;53.056;8.690;2023-12-20T13:23:11;6.83;;;2.13;;
13291;SDS011;6714;53.056;8.690;2023-12-20T13:25:53;6.97;;;1.87;;
13291;SDS011;6714;53.056;8.690;2023-12-20T13:28:36;7.60;;;2.40;;
13291;SDS011;6714;53.056;8.690;2023-12-20T13:31:19;6.80;;;1.97;;
13291;SDS011;6714;53.056;8.690;2023-12-20T13:34:04;7.60;;;2.10;;
13291;SDS011;6714;53.056;8.690;2023-12-20T13:36:46;7.10;;;2.47;;
13291;SDS011;6714;53.056;8.690;2023-12-20T13:39:30;6.53;;;1.90;;
13291;SDS011;6714;53.056;8.690;2023-12-20T13:42:13;6.53;;;2.10;;
13291;SDS011;6714;53.056;8.690;2023-12-20T13:44:57;6.30;;;2.23;;
13291;SDS011;6714;53.056;8.690;2023-12-20T13:47:39;6.70;;;1.77;;
13291;SDS011;6714;53.056;8.690;2023-12-20T13:50:23;4.47;;;1.87;;
13291;SDS011;6714;53.056;8.690;2023-12-20T13:53:06;7.13;;;2.57;;
13291;SDS011;6714;53.056;8.690;2023-12-20T13:55:48;9.43;;;2.37;;
13291;SDS011;6714;53.056;8.690;2023-12-20T13:58:31;7.27;;;1.97;;
13291;SDS011;6714;53.056;8.690;2023-12-20T14:01:13;6.67;;;2.10;;
13291;SDS011;6714;53.056;8.690;2023-12-20T14:03:56;4.93;;;1.60;;
13291;SDS011;6714;53.056;8.690;2023-12-20T14:06:39;9.20;;;2.07;;
13291;SDS011;6714;53.056;8.690;2023-12-20T14:09:22;10.43;;;1.80;;
13291;SDS011;6714;53.056;8.690;2023-12-20T14:12:05;8.87;;;2.80;;
13291;SDS011;6714;53.056;8.690;2023-12-20T14:14:49;8.50;;;2.13;;
13291;SDS011;6714;53.056;8.690;2023-12-20T14:17:31;5.03;;;1.90;;
13291;SDS011;6714;53.056;8.690;2023-12-20T14:20:15;8.40;;;2.27;;
13291;SDS011;6714;53.056;8.690;2023-12-20T14:22:59;9.27;;;2.20;;
13291;SDS011;6714;53.056;8.690;2023-12-20T14:25:41;10.50;;;2.20;;
13291;SDS011;6714;53.056;8.690;2023-12-20T14:28:24;6.87;;;2.03;;
13291;SDS011;6714;53.056;8.690;2023-12-20T14:31:06;6.67;;;2.30;;
13291;SDS011;6714;53.056;8.690;2023-12-20T14:33:50;7.37;;;2.33;;
13291;SDS011;6714;53.056;8.690;2023-12-20T14:36:34;8.07;;;2.13;;
13291;SDS011;6714;53.056;8.690;2023-12-20T14:39:18;5.20;;;1.80;;
13291;SDS011;6714;53.056;8.690;2023-12-20T14:42:00;8.37;;;2.23;;
13291;SDS011;6714;53.056;8.690;2023-12-20T14:44:43;9.30;;;2.23;;
13291;SDS011;6714;53.056;8.690;2023-12-20T14:47:25;6.70;;;2.30;;
13291;SDS011;6714;53.056;8.690;2023-12-20T14:50:09;7.73;;;1.77;;
13291;SDS011;6714;53.056;8.690;2023-12-20T14:52:52;6.50;;;1.67;;
13291;SDS011;6714;53.056;8.690;2023-12-20T14:55:37;7.60;;;2.03;;
13291;SDS011;6714;53.056;8.690;2023-12-20T14:58:19;8.20;;;2.67;;
13291;SDS011;6714;53.056;8.690;2023-12-20T15:01:02;8.83;;;2.73;;
13291;SDS011;6714;53.056;8.690;2023-12-20T15:03:44;8.23;;;2.13;;
13291;SDS011;6714;53.056;8.690;2023-12-20T15:06:26;7.33;;;1.97;;
13291;SDS011;6714;53.056;8.690;2023-12-20T15:09:09;8.13;;;2.30;;
13291;SDS011;6714;53.056;8.690;2023-12-20T15:11:53;7.40;;;2.07;;
13291;SDS011;6714;53.056;8.690;2023-12-20T15:14:36;8.00;;;1.93;;
13291;SDS011;6714;53.056;8.690;2023-12-20T15:17:18;6.07;;;1.93;;
13291;SDS011;6714;53.056;8.690;2023-12-20T15:20:01;6.07;;;1.90;;
13291;SDS011;6714;53.056;8.690;2023-12-20T15:22:44;9.87;;;2.03;;
13291;SDS011;6714;53.056;8.690;2023-12-20T15:25:29;9.43;;;2.40;;
13291;SDS011;6714;53.056;8.690;2023-12-20T15:28:13;8.00;;;1.80;;
13291;SDS011;6714;53.056;8.690;2023-12-20T15:30:56;5.23;;;2.00;;
13291;SDS011;6714;53.056;8.690;2023-12-20T15:33:38;8.67;;;1.90;;
13291;SDS011;6714;53.056;8.690;2023-12-20T15:36:21;6.10;;;1.73;;
13291;SDS011;6714;53.056;8.690;2023-12-20T15:39:03;5.63;;;1.90;;
13291;SDS011;6714;53.056;8.690;2023-12-20T15:41:48;7.43;;;2.77;;
13291;SDS011;6714;53.056;8.690;2023-12-20T15:44:34;7.27;;;2.13;;
13291;SDS011;6714;53.056;8.690;2023-12-20T15:47:17;7.37;;;2.03;;
13291;SDS011;6714;53.056;8.690;2023-12-20T15:49:59;7.93;;;2.07;;
13291;SDS011;6714;53.056;8.690;2023-12-20T15:52:42;5.57;;;1.97;;
13291;SDS011;6714;53.056;8.690;2023-12-20T15:55:24;5.17;;;1.57;;
13291;SDS011;6714;53.056;8.690;2023-12-20T15:58:07;7.17;;;2.40;;
13291;SDS011;6714;53.056;8.690;2023-12-20T16:00:51;10.07;;;2.47;;
13291;SDS011;6714;53.056;8.690;2023-12-20T16:03:33;4.87;;;2.00;;
13291;SDS011;6714;53.056;8.690;2023-12-20T16:06:15;9.93;;;2.17;;
13291;SDS011;6714;53.056;8.690;2023-12-20T16:08:58;7.10;;;1.90;;
13291;SDS011;6714;53.056;8.690;2023-12-20T16:11:40;8.27;;;1.60;;
13291;SDS011;6714;53.056;8.690;2023-12-20T16:14:24;6.03;;;2.20;;
13291;SDS011;6714;53.056;8.690;2023-12-20T16:17:11;9.17;;;2.50;;
13291;SDS011;6714;53.056;8.690;2023-12-20T16:19:53;5.10;;;1.70;;
13291;SDS011;6714;53.056;8.690;2023-12-20T16:22:35;5.03;;;1.90;;
13291;SDS011;6714;53.056;8.690;2023-12-20T16:25:18;5.80;;;1.87;;
13291;SDS011;6714;53.056;8.690;2023-12-20T16:28:00;4.30;;;1.80;;
13291;SDS011;6714;53.056;8.690;2023-12-20T16:30:43;7.20;;;2.00;;
13291;SDS011;6714;53.056;8.690;2023-12-20T16:33:28;8.90;;;1.97;;
13291;SDS011;6714;53.056;8.690;2023-12-20T16:36:10;4.37;;;1.70;;